createdAt,value
2023-01-01T00:00:39.756Z,6.41
2023-01-01T00:03:06.182Z,6.40
2023-01-01T00:05:32.742Z,6.39
2023-01-01T00:08:04.671Z,6.38
2023-01-01T00:10:31.741Z,6.34
2023-01-01T00:12:58.828Z,6.28
2023-01-01T00:15:27.388Z,6.27
2023-01-01T00:17:53.766Z,6.25
2023-01-01T00:20:20.356Z,6.21
2023-01-01T00:22:55.895Z,6.23
2023-01-01T00:25:23.342Z,6.24
2023-01-01T00:27:50.011Z,6.24
2023-01-01T00:30:16.548Z,6.18
2023-01-01T00:32:42.952Z,6.15
2023-01-01T00:35:21.476Z,6.14
2023-01-01T00:37:47.871Z,6.07
2023-01-01T00:40:14.280Z,6.10
2023-01-01T00:42:40.652Z,6.06
2023-01-01T00:45:07.865Z,6.06
2023-01-01T00:47:34.351Z,6.05
2023-01-01T00:50:00.720Z,6.01
2023-01-01T00:52:27.024Z,6.00
2023-01-01T00:54:53.622Z,5.99
2023-01-01T00:57:20.191Z,5.94
2023-01-01T00:59:46.550Z,5.90
2023-01-01T01:02:13.038Z,5.87
2023-01-01T01:04:39.468Z,5.83
2023-01-01T01:07:06.038Z,5.79
2023-01-01T01:09:32.553Z,5.76
2023-01-01T01:12:18.691Z,5.75
2023-01-01T01:14:45.969Z,5.69
2023-01-01T01:17:12.395Z,5.64
2023-01-01T01:19:38.928Z,5.65
2023-01-01T01:22:05.443Z,5.60
2023-01-01T01:24:32.038Z,5.59
2023-01-01T01:26:58.440Z,5.54
2023-01-01T01:29:25.047Z,5.56
2023-01-01T01:31:51.428Z,5.56
2023-01-01T01:34:21.145Z,5.56
2023-01-01T01:36:50.549Z,5.56
2023-01-01T01:39:17.189Z,5.55
2023-01-01T01:41:43.903Z,5.54
2023-01-01T01:44:48.046Z,5.59
2023-01-01T01:47:58.234Z,5.62
2023-01-01T01:50:29.706Z,5.58
2023-01-01T01:53:10.794Z,5.56
2023-01-01T01:55:40.802Z,5.54
2023-01-01T01:58:11.342Z,5.51
2023-01-01T02:00:37.758Z,5.46
2023-01-01T02:03:12.662Z,5.45
2023-01-01T02:05:41.416Z,5.42
2023-01-01T02:08:09.662Z,5.41
2023-01-01T02:10:36.228Z,5.39
2023-01-01T02:13:02.662Z,5.38
2023-01-01T02:15:32.811Z,5.32
2023-01-01T02:18:14.716Z,5.27
2023-01-01T02:20:53.828Z,5.28
2023-01-01T02:23:31.772Z,5.27
2023-01-01T02:26:17.671Z,5.26
2023-01-01T02:29:02.801Z,5.22
2023-01-01T02:31:35.037Z,5.24
2023-01-01T02:34:07.100Z,5.16
2023-01-01T02:36:38.167Z,5.19
2023-01-01T02:39:08.402Z,5.16
2023-01-01T02:41:40.090Z,5.16
2023-01-01T02:46:34.407Z,5.09
2023-01-01T02:49:07.987Z,5.02
2023-01-01T02:52:15.794Z,4.98
2023-01-01T02:54:46.441Z,5.00
2023-01-01T02:57:37.520Z,5.01
2023-01-01T03:00:08.448Z,5.02
2023-01-01T03:02:51.637Z,5.02
2023-01-01T03:05:30.564Z,5.02
2023-01-01T03:08:12.316Z,4.97
2023-01-01T03:10:50.859Z,4.97
2023-01-01T03:13:35.287Z,4.93
2023-01-01T03:16:21.700Z,4.91
2023-01-01T03:19:02.022Z,4.92
2023-01-01T03:21:28.641Z,4.98
2023-01-01T03:23:56.000Z,4.97
2023-01-01T03:26:25.408Z,4.95
2023-01-01T03:28:58.299Z,4.90
2023-01-01T03:31:26.325Z,4.92
2023-01-01T03:34:01.243Z,4.95
2023-01-01T03:36:36.251Z,4.98
2023-01-01T03:39:12.116Z,5.03
2023-01-01T03:41:47.771Z,5.04
2023-01-01T03:44:38.497Z,5.18
2023-01-01T03:47:06.244Z,5.15
2023-01-01T03:49:33.771Z,5.14
2023-01-01T03:52:21.396Z,5.09
2023-01-01T03:55:19.996Z,5.04
2023-01-01T03:57:57.170Z,4.99
2023-01-01T04:00:27.640Z,5.04
2023-01-01T04:03:10.805Z,5.08
2023-01-01T04:05:40.520Z,5.12
2023-01-01T04:08:07.909Z,5.17
2023-01-01T04:10:39.684Z,5.19
2023-01-01T04:13:07.011Z,5.20
2023-01-01T04:15:34.195Z,5.22
2023-01-01T04:18:00.668Z,5.19
2023-01-01T04:20:27.102Z,5.20
2023-01-01T04:22:56.818Z,5.14
2023-01-01T04:25:23.449Z,5.27
2023-01-01T04:27:49.896Z,5.18
2023-01-01T04:30:16.949Z,5.11
2023-01-01T04:32:43.707Z,5.01
2023-01-01T04:35:11.891Z,4.97
2023-01-01T04:37:39.869Z,4.89
2023-01-01T04:40:07.263Z,4.82
2023-01-01T04:42:33.692Z,4.76
2023-01-01T04:45:00.347Z,4.70
2023-01-01T04:47:26.881Z,4.66
2023-01-01T04:49:54.277Z,4.61
2023-01-01T04:52:21.363Z,4.62
2023-01-01T04:54:47.840Z,4.58
2023-01-01T04:57:14.253Z,4.55
2023-01-01T04:59:41.506Z,4.51
2023-01-01T05:02:07.959Z,4.44
2023-01-01T05:04:34.561Z,4.42
2023-01-01T05:07:01.319Z,4.35
2023-01-01T05:09:27.752Z,4.33
2023-01-01T05:11:55.095Z,4.30
2023-01-01T05:14:21.625Z,4.30
2023-01-01T05:16:48.025Z,4.27
2023-01-01T05:19:14.586Z,4.28
2023-01-01T05:21:41.651Z,4.28
2023-01-01T05:24:10.015Z,4.26
2023-01-01T05:26:40.166Z,4.22
2023-01-01T05:29:13.758Z,4.15
2023-01-01T05:31:42.436Z,4.00
2023-01-01T05:36:36.061Z,3.76
2023-01-01T05:39:02.413Z,3.72
2023-01-01T05:41:29.004Z,3.67
2023-01-01T05:43:55.457Z,3.68
2023-01-01T05:46:24.184Z,3.70
2023-01-01T05:48:52.676Z,3.69
2023-01-01T05:51:22.070Z,3.70
2023-01-01T05:53:48.819Z,3.68
2023-01-01T05:56:16.449Z,3.64
2023-01-01T05:58:44.058Z,3.60
2023-01-01T06:01:14.864Z,3.57
2023-01-01T06:03:43.009Z,3.57
2023-01-01T06:06:14.570Z,3.60
2023-01-01T06:08:41.321Z,3.64
2023-01-01T06:11:11.178Z,3.64
2023-01-01T06:13:37.950Z,3.64
2023-01-01T06:16:04.566Z,3.62
2023-01-01T06:18:34.284Z,3.58
2023-01-01T06:21:09.412Z,3.58
2023-01-01T06:23:36.335Z,3.51
2023-01-01T06:26:12.628Z,3.46
2023-01-01T06:28:40.107Z,3.44
2023-01-01T06:31:08.437Z,3.45
2023-01-01T06:33:35.422Z,3.43
2023-01-01T06:36:08.025Z,3.46
2023-01-01T06:38:36.392Z,3.48
2023-01-01T06:41:05.563Z,3.47
2023-01-01T06:43:34.261Z,3.48
2023-01-01T06:46:05.275Z,3.51
2023-01-01T06:48:34.811Z,3.46
2023-01-01T06:51:16.209Z,3.47
2023-01-01T06:53:43.458Z,3.43
2023-01-01T06:56:09.929Z,3.37
2023-01-01T06:58:36.561Z,3.39
2023-01-01T07:01:13.160Z,3.43
2023-01-01T07:03:40.372Z,3.44
2023-01-01T07:06:08.226Z,3.39
2023-01-01T07:08:35.885Z,3.39
2023-01-01T07:11:02.353Z,3.35
2023-01-01T07:13:30.157Z,3.40
2023-01-01T07:15:56.682Z,3.47
2023-01-01T07:18:25.208Z,3.50
2023-01-01T07:20:55.256Z,3.50
2023-01-01T07:23:21.856Z,3.50
2023-01-01T07:25:52.791Z,3.52
2023-01-01T07:28:19.810Z,3.56
2023-01-01T07:30:46.657Z,3.64
2023-01-01T07:33:18.200Z,3.60
2023-01-01T07:35:45.356Z,3.57
2023-01-01T07:38:12.531Z,3.55
2023-01-01T07:40:39.273Z,3.55
2023-01-01T07:43:05.962Z,3.56
2023-01-01T07:45:33.451Z,3.61
2023-01-01T07:48:00.588Z,3.61
2023-01-01T07:50:29.546Z,3.58
2023-01-01T07:52:55.901Z,3.63
2023-01-01T07:55:22.508Z,3.66
2023-01-01T07:57:49.558Z,3.63
2023-01-01T08:00:18.857Z,3.78
2023-01-01T08:02:45.958Z,3.86
2023-01-01T08:05:12.433Z,3.84
2023-01-01T08:07:39.556Z,3.85
2023-01-01T08:10:07.518Z,3.90
2023-01-01T08:12:34.365Z,3.89
2023-01-01T08:15:00.859Z,3.97
2023-01-01T08:17:27.316Z,4.01
2023-01-01T08:19:53.837Z,4.00
2023-01-01T08:22:20.207Z,4.04
2023-01-01T08:24:46.789Z,4.04
2023-01-01T08:27:15.093Z,4.07
2023-01-01T08:29:42.561Z,4.10
2023-01-01T08:32:09.025Z,4.11
2023-01-01T08:34:35.773Z,4.21
2023-01-01T08:37:02.137Z,4.25
2023-01-01T08:39:28.799Z,4.25
2023-01-01T08:41:55.302Z,4.25
2023-01-01T08:44:21.692Z,4.29
2023-01-01T08:46:48.211Z,4.36
2023-01-01T08:49:14.642Z,4.42
2023-01-01T08:51:41.106Z,4.38
2023-01-01T08:54:07.793Z,4.53
2023-01-01T08:56:34.188Z,4.66
2023-01-01T08:59:04.122Z,4.80
2023-01-01T09:01:31.080Z,4.80
2023-01-01T09:03:57.792Z,4.82
2023-01-01T09:06:24.128Z,4.97
2023-01-01T09:08:50.571Z,5.19
2023-01-01T09:11:26.868Z,5.26
2023-01-01T09:13:54.222Z,5.27
2023-01-01T09:16:21.562Z,5.27
2023-01-01T09:18:48.275Z,5.34
2023-01-01T09:21:15.022Z,5.61
2023-01-01T09:23:41.638Z,5.55
2023-01-01T09:26:09.896Z,5.66
2023-01-01T09:28:37.259Z,5.87
2023-01-01T09:31:04.430Z,5.85
2023-01-01T09:33:30.775Z,5.82
2023-01-01T09:36:15.698Z,5.90
2023-01-01T09:38:42.327Z,6.04
2023-01-01T09:41:19.929Z,6.14
2023-01-01T09:44:26.241Z,6.22
2023-01-01T09:46:54.560Z,6.08
2023-01-01T09:49:41.233Z,6.32
2023-01-01T09:52:13.146Z,6.37
2023-01-01T09:54:59.843Z,6.42
2023-01-01T09:57:30.743Z,6.39
2023-01-01T10:00:00.604Z,6.61
2023-01-01T10:02:41.230Z,6.84
2023-01-01T10:05:29.861Z,7.13
2023-01-01T10:08:02.597Z,7.29
2023-01-01T10:10:57.591Z,7.58
2023-01-01T10:13:36.632Z,7.74
2023-01-01T10:16:12.266Z,7.80
2023-01-01T10:18:40.871Z,7.86
2023-01-01T10:21:16.241Z,8.26
2023-01-01T10:23:54.745Z,8.34
2023-01-01T10:26:24.914Z,8.28
2023-01-01T10:28:57.116Z,8.62
2023-01-01T10:31:55.124Z,8.99
2023-01-01T10:34:25.974Z,8.72
2023-01-01T10:36:53.817Z,8.67
2023-01-01T10:39:20.512Z,8.64
2023-01-01T10:41:48.071Z,8.87
2023-01-01T10:44:18.537Z,9.09
2023-01-01T10:46:50.561Z,9.32
2023-01-01T10:49:17.112Z,9.67
2023-01-01T10:51:54.312Z,9.87
2023-01-01T10:54:32.674Z,9.73
2023-01-01T10:56:59.795Z,10.01
2023-01-01T10:59:39.640Z,10.28
2023-01-01T11:02:28.351Z,10.48
2023-01-01T11:05:22.184Z,10.45
2023-01-01T11:07:49.599Z,11.01
2023-01-01T11:10:21.516Z,11.35
2023-01-01T11:13:05.729Z,11.28
2023-01-01T11:15:39.516Z,11.74
2023-01-01T11:18:25.781Z,12.00
2023-01-01T11:20:54.634Z,12.28
2023-01-01T11:23:32.292Z,12.36
2023-01-01T11:26:01.500Z,12.37
2023-01-01T11:28:28.448Z,12.42
2023-01-01T11:31:16.012Z,12.65
2023-01-01T11:33:52.625Z,12.90
2023-01-01T11:36:31.212Z,12.91
2023-01-01T11:39:25.145Z,13.18
2023-01-01T11:41:54.316Z,12.71
2023-01-01T11:44:34.685Z,12.74
2023-01-01T11:47:02.363Z,12.82
2023-01-01T11:49:30.446Z,12.83
2023-01-01T11:51:58.437Z,13.35
2023-01-01T11:54:33.317Z,13.38
2023-01-01T11:57:12.066Z,13.72
2023-01-01T11:59:49.881Z,13.38
2023-01-01T12:02:30.394Z,13.66
2023-01-01T12:05:13.789Z,14.04
2023-01-01T12:07:43.208Z,14.28
2023-01-01T12:10:23.078Z,14.53
2023-01-01T12:13:04.206Z,14.64
2023-01-01T12:15:47.677Z,14.67
2023-01-01T12:18:39.693Z,14.72
2023-01-01T12:21:18.599Z,14.87
2023-01-01T12:23:45.098Z,14.89
2023-01-01T12:26:32.068Z,15.06
2023-01-01T12:29:35.253Z,15.09
2023-01-01T12:32:17.517Z,14.85
2023-01-01T12:34:59.337Z,14.98
2023-01-01T12:37:28.335Z,15.06
2023-01-01T12:40:00.502Z,14.87
2023-01-01T12:43:01.647Z,15.27
2023-01-01T12:46:01.577Z,15.27
2023-01-01T12:48:28.129Z,15.42
2023-01-01T12:51:19.326Z,15.58
2023-01-01T12:54:12.911Z,15.65
2023-01-01T12:57:17.084Z,15.75
2023-01-01T12:59:48.249Z,15.77
2023-01-01T13:02:20.783Z,15.77
2023-01-01T13:04:49.581Z,15.79
2023-01-01T13:07:26.089Z,15.84
2023-01-01T13:09:52.519Z,15.82
2023-01-01T13:12:23.129Z,15.72
2023-01-01T13:14:49.611Z,15.29
2023-01-01T13:17:30.181Z,15.43
2023-01-01T13:20:15.062Z,15.57
2023-01-01T13:22:42.280Z,15.42
2023-01-01T13:25:08.941Z,15.13
2023-01-01T13:27:57.183Z,14.86
2023-01-01T13:30:35.983Z,15.00
2023-01-01T13:33:31.241Z,15.23
2023-01-01T13:36:10.047Z,15.34
2023-01-01T13:38:53.109Z,15.41
2023-01-01T13:41:25.297Z,15.45
2023-01-01T13:44:11.433Z,15.42
2023-01-01T13:46:44.077Z,15.36
2023-01-01T13:49:28.085Z,15.24
2023-01-01T13:52:09.790Z,15.20
2023-01-01T13:54:38.878Z,15.08
2023-01-01T13:57:38.145Z,15.01
2023-01-01T14:00:14.072Z,14.55
2023-01-01T14:02:48.627Z,14.52
2023-01-01T14:05:33.356Z,14.29
2023-01-01T14:07:59.862Z,14.27
2023-01-01T14:10:34.455Z,14.33
2023-01-01T14:13:06.637Z,14.40
2023-01-01T14:15:37.860Z,14.41
2023-01-01T14:18:10.133Z,14.38
2023-01-01T14:20:43.058Z,14.31
2023-01-01T14:23:29.483Z,14.21
2023-01-01T14:25:56.932Z,14.15
2023-01-01T14:28:29.347Z,14.09
2023-01-01T14:30:57.562Z,14.03
2023-01-01T14:33:27.669Z,13.97
2023-01-01T14:35:56.202Z,13.90
2023-01-01T14:38:28.323Z,13.82
2023-01-01T14:41:15.471Z,13.69
2023-01-01T14:43:45.259Z,13.56
2023-01-01T14:46:21.185Z,13.47
2023-01-01T14:48:51.695Z,13.38
2023-01-01T14:51:23.756Z,13.28
2023-01-01T14:53:52.912Z,13.15
2023-01-01T14:56:28.453Z,13.04
2023-01-01T14:59:12.465Z,12.89
2023-01-01T15:01:38.908Z,12.82
2023-01-01T15:04:19.145Z,12.73
2023-01-01T15:06:45.757Z,12.63
2023-01-01T15:09:16.590Z,12.54
2023-01-01T15:11:43.439Z,12.43
2023-01-01T15:14:39.079Z,12.30
2023-01-01T15:17:08.259Z,12.14
2023-01-01T15:19:36.329Z,12.04
2023-01-01T15:22:11.683Z,11.91
2023-01-01T15:24:39.446Z,11.80
2023-01-01T15:27:07.734Z,11.68
2023-01-01T15:29:44.903Z,11.54
2023-01-01T15:32:14.731Z,11.46
2023-01-01T15:34:50.229Z,11.29
2023-01-01T15:37:23.312Z,11.15
2023-01-01T15:39:52.685Z,11.01
2023-01-01T15:42:35.574Z,10.86
2023-01-01T15:45:22.458Z,10.78
2023-01-01T15:47:51.200Z,10.72
2023-01-01T15:50:17.564Z,10.66
2023-01-01T15:52:44.471Z,10.54
2023-01-01T15:55:15.676Z,10.40
2023-01-01T15:57:46.371Z,10.36
2023-01-01T16:00:40.935Z,10.20
2023-01-01T16:03:21.815Z,10.13
2023-01-01T16:05:50.417Z,10.06
2023-01-01T16:08:16.854Z,9.97
2023-01-01T16:10:43.592Z,9.80
2023-01-01T16:13:10.123Z,9.76
2023-01-01T16:15:37.167Z,9.77
2023-01-01T16:18:04.072Z,9.75
2023-01-01T16:20:30.485Z,9.70
2023-01-01T16:22:56.831Z,9.57
2023-01-01T16:25:23.282Z,9.47
2023-01-01T16:27:49.879Z,9.37
2023-01-01T16:30:16.645Z,9.28
2023-01-01T16:32:43.121Z,9.17
2023-01-01T16:35:13.584Z,9.06
2023-01-01T16:37:40.083Z,8.99
2023-01-01T16:40:07.551Z,8.90
2023-01-01T16:42:34.035Z,8.86
2023-01-01T16:45:00.692Z,8.80
2023-01-01T16:47:27.280Z,8.77
2023-01-01T16:49:53.645Z,8.74
2023-01-01T16:52:20.108Z,8.66
2023-01-01T16:54:46.560Z,8.61
2023-01-01T16:57:13.057Z,8.56
2023-01-01T16:59:39.658Z,8.51
2023-01-01T17:02:06.448Z,8.46
2023-01-01T17:04:33.012Z,8.46
2023-01-01T17:06:59.419Z,8.44
2023-01-01T17:09:26.095Z,8.34
2023-01-01T17:11:52.520Z,8.22
2023-01-01T17:14:18.817Z,8.16
2023-01-01T17:16:45.215Z,8.16
2023-01-01T17:19:14.987Z,8.05
2023-01-01T17:21:42.518Z,8.02
2023-01-01T17:24:09.288Z,7.98
2023-01-01T17:26:35.775Z,7.93
2023-01-01T17:29:03.125Z,7.83
2023-01-01T17:31:30.100Z,7.75
2023-01-01T17:33:57.060Z,7.66
2023-01-01T17:36:23.704Z,7.61
2023-01-01T17:38:50.063Z,7.56
2023-01-01T17:41:17.726Z,7.50
2023-01-01T17:43:47.747Z,7.44
2023-01-01T17:46:17.218Z,7.40
2023-01-01T17:48:44.405Z,7.40
2023-01-01T17:51:12.812Z,7.36
2023-01-01T17:53:39.497Z,7.35
2023-01-01T17:56:06.691Z,7.28
2023-01-01T17:58:35.452Z,7.29
2023-01-01T18:01:19.091Z,7.26
2023-01-01T18:03:45.737Z,7.21
2023-01-01T18:06:12.158Z,7.18
2023-01-01T18:08:38.533Z,7.12
2023-01-01T18:11:05.353Z,7.08
2023-01-01T18:13:32.271Z,7.04
2023-01-01T18:16:08.036Z,7.01
2023-01-01T18:18:38.790Z,6.94
2023-01-01T18:21:12.476Z,6.88
2023-01-01T18:23:39.921Z,6.87
2023-01-01T18:26:09.545Z,6.83
2023-01-01T18:28:35.923Z,6.82
2023-01-01T18:31:16.140Z,6.75
2023-01-01T18:33:43.211Z,6.69
2023-01-01T18:36:12.617Z,6.65
2023-01-01T18:38:58.332Z,6.62
2023-01-01T18:41:33.724Z,6.56
2023-01-01T18:44:00.430Z,6.51
2023-01-01T18:46:29.388Z,6.45
2023-01-01T18:48:59.826Z,6.44
2023-01-01T18:51:26.588Z,6.40
2023-01-01T18:53:58.685Z,6.36
2023-01-01T18:56:25.641Z,6.33
2023-01-01T18:58:56.322Z,6.29
2023-01-01T19:01:24.258Z,6.25
2023-01-01T19:04:01.021Z,6.19
2023-01-01T19:06:36.113Z,6.16
2023-01-01T19:09:23.334Z,6.11
2023-01-01T19:11:54.407Z,6.08
2023-01-01T19:14:24.175Z,6.01
2023-01-01T19:16:55.481Z,6.01
2023-01-01T19:19:26.859Z,6.01
2023-01-01T19:22:01.725Z,5.97
2023-01-01T19:24:31.371Z,5.90
2023-01-01T19:27:15.375Z,5.87
2023-01-01T19:29:44.489Z,5.84
2023-01-01T19:32:11.136Z,5.81
2023-01-01T19:34:37.702Z,5.74
2023-01-01T19:37:04.997Z,5.73
2023-01-01T19:39:32.161Z,5.70
2023-01-01T19:41:58.784Z,5.74
2023-01-01T19:44:25.521Z,5.75
2023-01-01T19:46:51.920Z,5.73
2023-01-01T19:49:18.317Z,5.66
2023-01-01T19:51:45.108Z,5.64
2023-01-01T19:54:11.745Z,5.59
2023-01-01T19:56:38.256Z,5.56
2023-01-01T19:59:04.789Z,5.47
2023-01-01T20:01:31.261Z,5.47
2023-01-01T20:03:58.040Z,5.48
2023-01-01T20:06:26.016Z,5.45
2023-01-01T20:08:53.733Z,5.44
2023-01-01T20:11:21.020Z,5.42
2023-01-01T20:13:48.155Z,5.41
2023-01-01T20:16:14.569Z,5.40
2023-01-01T20:18:40.994Z,5.40
2023-01-01T20:21:07.541Z,5.38
2023-01-01T20:23:34.038Z,5.36
2023-01-01T20:26:00.472Z,5.31
2023-01-01T20:28:26.876Z,5.34
2023-01-01T20:30:53.273Z,5.33
2023-01-01T20:33:19.787Z,5.31
2023-01-01T20:35:46.232Z,5.28
2023-01-01T20:38:12.717Z,5.24
2023-01-01T20:40:39.199Z,5.20
2023-01-01T20:43:06.055Z,5.18
2023-01-01T20:45:32.622Z,5.16
2023-01-01T20:47:59.163Z,5.15
2023-01-01T20:50:25.796Z,5.12
2023-01-01T20:52:52.180Z,5.08
2023-01-01T20:55:18.524Z,5.08
2023-01-01T20:57:44.877Z,5.05
2023-01-01T21:00:11.657Z,5.03
2023-01-01T21:02:38.147Z,5.01
2023-01-01T21:05:04.849Z,4.99
2023-01-01T21:07:31.390Z,4.98
2023-01-01T21:09:57.851Z,4.99
2023-01-01T21:12:24.217Z,5.02
2023-01-01T21:14:51.655Z,5.12
2023-01-01T21:17:23.118Z,5.12
2023-01-01T21:19:52.127Z,5.03
2023-01-01T21:22:18.490Z,5.00
2023-01-01T21:24:49.696Z,4.96
2023-01-01T21:27:24.245Z,4.97
2023-01-01T21:29:55.938Z,4.94
2023-01-01T21:32:26.829Z,4.95
2023-01-01T21:34:54.014Z,4.99
2023-01-01T21:37:33.599Z,4.92
2023-01-01T21:40:00.185Z,4.95
2023-01-01T21:42:28.141Z,4.93
2023-01-01T21:44:57.560Z,4.97
2023-01-01T21:47:25.907Z,4.98
2023-01-01T21:49:56.235Z,5.01
2023-01-01T21:52:25.021Z,4.89
2023-01-01T21:54:51.319Z,4.88
2023-01-01T21:57:22.497Z,4.89
2023-01-01T21:59:50.540Z,4.87
2023-01-01T22:02:26.239Z,4.86
2023-01-01T22:04:52.758Z,4.75
2023-01-01T22:10:21.883Z,4.72
2023-01-01T22:12:53.959Z,4.78
2023-01-01T22:15:26.432Z,4.75
2023-01-01T22:18:21.887Z,4.74
2023-01-01T22:20:48.632Z,4.73
2023-01-01T22:23:28.525Z,4.71
2023-01-01T22:25:54.839Z,4.67
2023-01-01T22:28:27.237Z,4.66
2023-01-01T22:30:58.695Z,4.65
2023-01-01T22:33:37.747Z,4.63
2023-01-01T22:36:15.211Z,4.62
2023-01-01T22:38:43.111Z,4.60
2023-01-01T22:41:09.896Z,4.57
2023-01-01T22:43:41.099Z,4.53
2023-01-01T22:46:17.026Z,4.51
2023-01-01T22:48:43.604Z,4.52
2023-01-01T22:51:18.425Z,4.51
2023-01-01T22:53:45.223Z,4.52
2023-01-01T22:56:11.722Z,4.51
2023-01-01T22:58:38.213Z,4.48
2023-01-01T23:01:04.761Z,4.45
2023-01-01T23:03:31.373Z,4.46
2023-01-01T23:05:58.641Z,4.42
2023-01-01T23:08:25.872Z,4.40
2023-01-01T23:10:53.470Z,4.38
2023-01-01T23:13:20.083Z,4.37
2023-01-01T23:15:49.725Z,4.38
2023-01-01T23:18:20.212Z,4.44
2023-01-01T23:20:46.557Z,4.39
2023-01-01T23:23:12.949Z,4.41
2023-01-01T23:25:39.437Z,4.41
2023-01-01T23:28:05.976Z,4.40
2023-01-01T23:30:32.698Z,4.44
2023-01-01T23:32:59.264Z,4.44
2023-01-01T23:35:25.756Z,4.42
2023-01-01T23:37:52.229Z,4.49
2023-01-01T23:40:18.834Z,4.49
2023-01-01T23:42:45.162Z,4.46
2023-01-01T23:45:11.508Z,4.45
2023-01-01T23:47:37.865Z,4.51
2023-01-01T23:50:04.567Z,4.48
2023-01-01T23:52:31.064Z,4.51
2023-01-01T23:54:57.426Z,4.54
2023-01-01T23:57:23.890Z,4.53
2023-01-01T23:59:50.237Z,4.53
